createdAt,value
2018-05-10T00:01:39.805Z,66.18
2018-05-10T00:04:05.561Z,66.34
2018-05-10T00:06:31.297Z,66.01
2018-05-10T00:08:57.040Z,66.15
2018-05-10T00:11:22.793Z,66.57
2018-05-10T00:13:48.519Z,66.57
2018-05-10T00:16:14.269Z,66.37
2018-05-10T00:18:40.008Z,66.79
2018-05-10T00:21:05.759Z,66.56
2018-05-10T00:23:31.496Z,66.28
2018-05-10T00:25:57.249Z,66.77
2018-05-10T00:28:22.997Z,66.64
2018-05-10T00:30:48.738Z,66.48
2018-05-10T00:33:14.468Z,66.92
2018-05-10T00:35:40.211Z,67.02
2018-05-10T00:38:05.936Z,67.21
2018-05-10T00:40:31.686Z,67.65
2018-05-10T00:42:57.408Z,68.08
2018-05-10T00:45:23.172Z,67.57
2018-05-10T00:47:48.900Z,67.29
2018-05-10T00:50:14.649Z,68.13
2018-05-10T00:52:40.415Z,68.34
2018-05-10T00:55:06.181Z,67.76
2018-05-10T00:57:31.929Z,67.85
2018-05-10T00:59:57.667Z,67.55
2018-05-10T01:02:23.417Z,67.64
2018-05-10T01:04:49.164Z,67.57
2018-05-10T01:07:14.912Z,67.76
2018-05-10T01:09:40.649Z,68.02
2018-05-10T01:12:06.404Z,67.90
2018-05-10T01:14:32.128Z,68.42
2018-05-10T01:16:57.880Z,68.54
2018-05-10T01:19:23.604Z,68.77
2018-05-10T01:21:49.368Z,68.64
2018-05-10T01:24:15.102Z,68.88
2018-05-10T01:26:40.852Z,68.92
2018-05-10T01:29:06.592Z,69.16
2018-05-10T01:31:32.344Z,69.39
2018-05-10T01:33:58.080Z,69.71
2018-05-10T01:36:23.816Z,69.46
2018-05-10T01:38:49.570Z,69.54
2018-05-10T01:41:15.300Z,69.52
2018-05-10T01:43:41.064Z,70.27
2018-05-10T01:46:06.821Z,70.02
2018-05-10T01:48:32.564Z,70.48
2018-05-10T01:50:58.295Z,71.00
2018-05-10T01:53:24.040Z,70.58
2018-05-10T01:55:49.781Z,70.60
2018-05-10T01:58:15.529Z,71.22
2018-05-10T02:00:41.259Z,70.89
2018-05-10T02:03:06.992Z,72.10
2018-05-10T02:05:32.722Z,71.95
2018-05-10T02:07:58.471Z,71.90
2018-05-10T02:10:24.206Z,72.45
2018-05-10T02:12:49.942Z,72.50
2018-05-10T02:15:15.709Z,72.41
2018-05-10T02:17:41.453Z,72.17
2018-05-10T02:20:07.184Z,72.51
2018-05-10T02:22:32.917Z,72.63
2018-05-10T02:24:58.691Z,72.19
2018-05-10T02:27:24.440Z,72.51
2018-05-10T02:29:50.206Z,72.40
2018-05-10T02:32:15.920Z,72.26
2018-05-10T02:34:41.666Z,73.51
2018-05-10T02:37:07.401Z,73.97
2018-05-10T02:39:33.149Z,74.11
2018-05-10T02:41:58.877Z,73.35
2018-05-10T02:44:24.611Z,73.64
2018-05-10T02:46:50.354Z,73.10
2018-05-10T02:49:16.089Z,73.72
2018-05-10T02:51:41.826Z,73.89
2018-05-10T02:54:07.564Z,73.65
2018-05-10T02:56:33.311Z,73.30
2018-05-10T02:58:59.064Z,73.06
2018-05-10T03:01:24.801Z,72.76
2018-05-10T03:03:50.533Z,72.80
2018-05-10T03:06:16.280Z,73.06
2018-05-10T03:08:42.024Z,73.23
2018-05-10T03:11:07.761Z,73.12
2018-05-10T03:13:33.498Z,72.22
2018-05-10T03:15:59.232Z,72.58
2018-05-10T03:18:24.976Z,72.79
2018-05-10T03:20:50.731Z,72.47
2018-05-10T03:23:16.449Z,73.00
2018-05-10T03:25:42.203Z,73.10
2018-05-10T03:28:07.920Z,73.05
2018-05-10T03:30:33.669Z,72.53
2018-05-10T03:32:59.396Z,72.54
2018-05-10T03:35:25.123Z,72.75
2018-05-10T03:37:50.864Z,72.92
2018-05-10T03:40:16.612Z,73.18
2018-05-10T03:42:42.352Z,73.72
2018-05-10T03:45:08.101Z,73.29
2018-05-10T03:47:33.834Z,73.08
2018-05-10T03:49:59.576Z,72.77
2018-05-10T03:52:25.299Z,73.27
2018-05-10T03:54:51.045Z,74.57
2018-05-10T03:57:16.772Z,75.20
2018-05-10T03:59:42.518Z,74.99
2018-05-10T04:02:08.244Z,74.86
2018-05-10T04:04:46.471Z,74.40
2018-05-10T04:07:25.460Z,74.66
2018-05-10T04:10:03.700Z,75.03
2018-05-10T04:12:29.440Z,75.12
2018-05-10T04:14:55.201Z,74.72
2018-05-10T04:17:20.928Z,74.91
2018-05-10T04:19:46.668Z,74.66
2018-05-10T04:22:12.400Z,74.98
2018-05-10T04:24:38.129Z,75.26
2018-05-10T04:27:03.871Z,74.99
2018-05-10T04:29:29.603Z,74.87
2018-05-10T04:31:55.346Z,74.25
2018-05-10T04:34:21.078Z,74.73
2018-05-10T04:36:46.831Z,74.79
2018-05-10T04:39:12.563Z,73.76
2018-05-10T04:41:38.312Z,73.82
2018-05-10T04:44:04.045Z,73.87
2018-05-10T04:46:29.798Z,72.40
2018-05-10T04:48:55.526Z,71.75
2018-05-10T04:51:21.265Z,72.68
2018-05-10T04:53:47.004Z,72.19
2018-05-10T04:56:12.748Z,73.22
2018-05-10T04:58:38.476Z,74.01
2018-05-10T05:01:04.212Z,73.93
2018-05-10T05:03:29.966Z,74.23
2018-05-10T05:05:55.672Z,73.35
2018-05-10T05:08:21.415Z,74.03
2018-05-10T05:10:47.156Z,73.41
2018-05-10T05:13:12.883Z,74.34
2018-05-10T05:15:38.608Z,74.52
2018-05-10T05:18:04.350Z,73.31
2018-05-10T05:20:30.092Z,73.71
2018-05-10T05:22:55.845Z,73.95
2018-05-10T05:25:21.573Z,73.04
2018-05-10T05:27:47.324Z,72.88
2018-05-10T05:30:13.049Z,72.53
2018-05-10T05:32:38.794Z,72.55
2018-05-10T05:35:04.523Z,71.97
2018-05-10T05:37:30.272Z,72.93
2018-05-10T05:39:56.004Z,72.33
2018-05-10T05:42:21.744Z,72.32
2018-05-10T05:44:47.471Z,71.69
2018-05-10T05:47:13.209Z,71.34
2018-05-10T05:49:38.939Z,71.04
2018-05-10T05:52:04.679Z,71.02
2018-05-10T05:54:30.404Z,71.26
2018-05-10T05:56:56.149Z,70.42
2018-05-10T05:59:21.938Z,70.34
2018-05-10T06:01:47.709Z,69.37
2018-05-10T06:04:13.433Z,68.85
2018-05-10T06:06:39.164Z,67.73
2018-05-10T06:09:04.917Z,67.30
2018-05-10T06:11:30.656Z,67.49
2018-05-10T06:13:56.396Z,66.06
2018-05-10T06:16:22.148Z,65.20
2018-05-10T06:18:47.889Z,64.01
2018-05-10T06:21:13.630Z,63.71
2018-05-10T06:23:39.368Z,63.73
2018-05-10T06:26:05.115Z,64.45
2018-05-10T06:28:30.879Z,64.59
2018-05-10T06:30:56.613Z,63.81
2018-05-10T06:33:22.361Z,64.44
2018-05-10T06:35:48.099Z,63.72
2018-05-10T06:38:13.854Z,63.41
2018-05-10T06:40:39.609Z,62.50
2018-05-10T06:43:05.343Z,62.92
2018-05-10T06:45:31.084Z,63.22
2018-05-10T06:47:56.830Z,63.81
2018-05-10T06:50:22.579Z,64.35
2018-05-10T06:52:48.329Z,64.32
2018-05-10T06:55:14.068Z,64.42
2018-05-10T06:57:39.816Z,65.25
2018-05-10T07:00:05.544Z,65.29
2018-05-10T07:02:31.288Z,66.22
2018-05-10T07:04:57.022Z,63.60
2018-05-10T07:07:22.769Z,63.46
2018-05-10T07:09:48.645Z,63.71
2018-05-10T07:12:14.257Z,63.66
2018-05-10T07:14:39.984Z,63.81
2018-05-10T07:17:05.739Z,63.65
2018-05-10T07:19:31.476Z,63.35
2018-05-10T07:21:57.213Z,62.25
2018-05-10T07:24:22.952Z,62.45
2018-05-10T07:26:48.692Z,63.26
2018-05-10T07:29:14.442Z,62.42
2018-05-10T07:31:40.176Z,63.11
2018-05-10T07:34:05.909Z,62.66
2018-05-10T07:36:31.665Z,61.59
2018-05-10T07:38:57.404Z,62.11
2018-05-10T07:41:23.164Z,61.39
2018-05-10T07:43:48.896Z,61.27
2018-05-10T07:46:14.624Z,62.43
2018-05-10T07:48:40.384Z,62.42
2018-05-10T07:51:06.148Z,63.01
2018-05-10T07:53:31.891Z,63.00
2018-05-10T07:55:57.646Z,61.56
2018-05-10T07:58:23.385Z,61.14
2018-05-10T08:00:49.105Z,61.44
2018-05-10T08:03:14.840Z,62.78
2018-05-10T08:05:40.573Z,61.74
2018-05-10T08:08:06.346Z,60.70
2018-05-10T08:10:32.079Z,60.70
2018-05-10T08:12:57.807Z,59.14
2018-05-10T08:15:23.548Z,56.99
2018-05-10T08:17:49.300Z,56.13
2018-05-10T08:20:15.057Z,56.22
2018-05-10T08:22:40.836Z,57.49
2018-05-10T08:25:06.590Z,55.75
2018-05-10T08:27:44.784Z,54.52
2018-05-10T08:30:10.566Z,57.82
2018-05-10T08:32:36.269Z,54.20
2018-05-10T08:35:02.020Z,50.57
2018-05-10T08:37:27.772Z,51.00
2018-05-10T08:39:53.541Z,50.05
2018-05-10T08:42:19.280Z,51.30
2018-05-10T08:44:45.019Z,51.33
2018-05-10T08:47:10.738Z,49.74
2018-05-10T08:49:36.472Z,51.22
2018-05-10T08:52:02.230Z,50.86
2018-05-10T08:54:27.963Z,50.25
2018-05-10T08:56:53.725Z,49.55
2018-05-10T08:59:19.457Z,49.10
2018-05-10T09:01:45.216Z,48.32
2018-05-10T09:04:10.977Z,49.52
2018-05-10T09:06:36.734Z,49.18
2018-05-10T09:09:02.509Z,49.04
2018-05-10T09:11:28.250Z,49.28
2018-05-10T09:13:53.998Z,48.67
2018-05-10T09:16:19.744Z,49.20
2018-05-10T09:18:45.484Z,48.61
2018-05-10T09:21:11.220Z,47.70
2018-05-10T09:23:36.951Z,49.18
2018-05-10T09:26:02.725Z,49.82
2018-05-10T09:28:28.426Z,46.82
2018-05-10T09:30:54.156Z,47.14
2018-05-10T09:33:19.896Z,45.96
2018-05-10T09:35:45.634Z,46.20
2018-05-10T09:38:11.365Z,45.29
2018-05-10T09:40:37.115Z,45.15
2018-05-10T09:43:02.866Z,43.64
2018-05-10T09:45:28.784Z,43.67
2018-05-10T09:47:54.544Z,45.80
2018-05-10T09:50:20.298Z,44.43
2018-05-10T09:52:46.063Z,44.11
2018-05-10T09:55:11.771Z,43.50
2018-05-10T09:57:37.500Z,41.23
2018-05-10T10:00:03.241Z,45.01
2018-05-10T10:02:28.968Z,44.89
2018-05-10T10:04:54.713Z,45.07
2018-05-10T10:07:20.441Z,43.92
2018-05-10T10:09:46.185Z,44.87
2018-05-10T10:12:11.916Z,45.51
2018-05-10T10:14:37.653Z,46.15
2018-05-10T10:17:03.389Z,44.31
2018-05-10T10:19:29.133Z,45.00
2018-05-10T10:21:54.871Z,44.02
2018-05-10T10:24:20.611Z,45.11
2018-05-10T10:26:46.340Z,43.84
2018-05-10T10:29:12.087Z,45.76
2018-05-10T10:31:37.825Z,45.39
2018-05-10T10:34:03.565Z,45.42
2018-05-10T10:36:29.284Z,46.73
2018-05-10T10:38:55.017Z,44.55
2018-05-10T10:41:20.760Z,45.06
2018-05-10T10:43:46.490Z,45.36
2018-05-10T10:46:12.219Z,45.88
2018-05-10T10:48:37.957Z,47.19
2018-05-10T10:51:03.700Z,47.21
2018-05-10T10:53:29.424Z,47.68
2018-05-10T10:55:55.153Z,46.98
2018-05-10T10:58:20.885Z,48.29
2018-05-10T11:00:46.643Z,48.70
2018-05-10T11:03:12.373Z,49.47
2018-05-10T11:05:38.104Z,50.14
2018-05-10T11:08:03.857Z,48.15
2018-05-10T11:10:29.596Z,48.96
2018-05-10T11:12:55.328Z,47.47
2018-05-10T11:15:21.067Z,47.18
2018-05-10T11:17:46.821Z,47.65
2018-05-10T11:20:12.561Z,45.96
2018-05-10T11:22:38.360Z,46.39
2018-05-10T11:25:04.094Z,45.98
2018-05-10T11:27:29.836Z,46.52
2018-05-10T11:29:55.588Z,43.81
2018-05-10T11:32:21.331Z,43.66
2018-05-10T11:34:47.073Z,42.73
2018-05-10T11:37:12.807Z,42.35
2018-05-10T11:39:38.545Z,42.92
2018-05-10T11:42:04.287Z,43.34
2018-05-10T11:44:30.087Z,43.54
2018-05-10T11:46:55.768Z,42.90
2018-05-10T11:49:21.500Z,43.27
2018-05-10T11:51:47.241Z,42.78
2018-05-10T11:54:12.980Z,42.34
2018-05-10T11:56:38.723Z,41.45
2018-05-10T11:59:04.448Z,40.55
2018-05-10T12:01:30.189Z,41.18
2018-05-10T12:03:55.940Z,41.57
2018-05-10T12:06:21.684Z,40.16
2018-05-10T12:08:47.675Z,40.04
2018-05-10T12:11:13.445Z,39.32
2018-05-10T12:13:39.430Z,38.45
2018-05-10T12:16:05.368Z,39.35
2018-05-10T12:18:31.097Z,38.78
2018-05-10T12:20:57.253Z,40.34
2018-05-10T12:23:23.371Z,40.88
2018-05-10T12:25:49.599Z,40.64
2018-05-10T12:28:15.837Z,39.89
2018-05-10T12:30:42.033Z,39.93
2018-05-10T12:33:08.156Z,39.20
2018-05-10T12:35:34.366Z,40.05
2018-05-10T12:38:00.478Z,40.15
2018-05-10T12:40:26.498Z,40.97
2018-05-10T12:42:52.373Z,41.33
2018-05-10T12:45:18.635Z,42.26
2018-05-10T12:47:44.758Z,44.19
2018-05-10T12:50:11.656Z,46.76
2018-05-10T12:52:37.764Z,52.79
2018-05-10T12:55:03.921Z,52.83
2018-05-10T12:57:30.018Z,55.05
2018-05-10T12:59:56.112Z,60.53
2018-05-10T13:02:22.244Z,62.54
2018-05-10T13:04:48.374Z,63.33
2018-05-10T13:07:14.580Z,63.53
2018-05-10T13:09:41.733Z,64.53
2018-05-10T13:12:08.738Z,67.34
2018-05-10T13:14:35.155Z,71.49
2018-05-10T13:17:01.307Z,79.51
2018-05-10T13:19:28.480Z,88.22
2018-05-10T13:21:54.444Z,92.81
2018-05-10T13:24:20.368Z,94.33
2018-05-10T13:26:47.385Z,97.98
2018-05-10T13:29:13.627Z,96.58
2018-05-10T13:31:39.767Z,95.65
2018-05-10T13:34:05.835Z,95.63
2018-05-10T13:36:32.012Z,95.71
2018-05-10T13:38:57.898Z,96.13
2018-05-10T13:41:23.896Z,94.82
2018-05-10T13:43:50.038Z,93.54
2018-05-10T13:46:15.971Z,94.71
2018-05-10T13:48:42.165Z,95.87
2018-05-10T13:51:08.379Z,96.68
2018-05-10T13:53:34.421Z,97.29
2018-05-10T13:56:02.284Z,96.83
2018-05-10T13:58:28.423Z,96.50
2018-05-10T14:00:54.625Z,96.54
2018-05-10T14:03:23.408Z,96.90
2018-05-10T14:05:49.570Z,97.35
2018-05-10T14:08:15.796Z,96.98
2018-05-10T14:10:41.968Z,95.46
2018-05-10T14:13:08.922Z,96.30
2018-05-10T14:15:35.097Z,95.99
2018-05-10T14:18:01.268Z,97.59
2018-05-10T14:20:27.542Z,96.92
2018-05-10T14:22:53.753Z,97.56
2018-05-10T14:25:20.013Z,97.71
2018-05-10T14:27:46.400Z,98.71
2018-05-10T14:30:12.613Z,97.70
2018-05-10T14:32:38.858Z,98.55
2018-05-10T14:35:04.955Z,98.37
2018-05-10T14:37:31.451Z,98.88
2018-05-10T14:39:57.554Z,99.07
2018-05-10T14:42:23.684Z,98.65
2018-05-10T14:44:50.931Z,98.38
2018-05-10T14:47:17.217Z,98.48
2018-05-10T14:49:44.173Z,98.04
2018-05-10T14:52:10.349Z,96.99
2018-05-10T14:54:36.447Z,97.30
2018-05-10T14:57:02.859Z,96.69
2018-05-10T14:59:29.414Z,97.32
2018-05-10T15:01:55.558Z,97.25
2018-05-10T15:04:21.678Z,96.85
2018-05-10T15:06:47.486Z,96.65
2018-05-10T15:09:15.589Z,97.80
2018-05-10T15:11:41.799Z,97.78
2018-05-10T15:14:07.628Z,97.47
2018-05-10T15:16:33.380Z,98.20
2018-05-10T15:18:59.141Z,97.11
2018-05-10T15:21:24.893Z,98.03
2018-05-10T15:23:50.647Z,97.26
2018-05-10T15:26:16.391Z,97.83
2018-05-10T15:28:42.146Z,98.13
2018-05-10T15:31:07.884Z,98.17
2018-05-10T15:33:33.633Z,98.48
2018-05-10T15:35:59.360Z,98.05
2018-05-10T15:38:25.110Z,97.35
2018-05-10T15:40:50.849Z,97.45
2018-05-10T15:43:16.581Z,97.86
2018-05-10T15:45:42.314Z,97.88
2018-05-10T15:48:08.049Z,97.55
2018-05-10T15:50:34.384Z,98.21
2018-05-10T15:53:01.449Z,98.67
2018-05-10T15:55:29.253Z,98.79
2018-05-10T15:57:56.997Z,98.61
2018-05-10T16:00:22.757Z,99.08
2018-05-10T16:02:48.508Z,98.90
2018-05-10T16:05:14.322Z,98.36
2018-05-10T16:07:40.084Z,98.77
2018-05-10T16:10:06.736Z,98.92
2018-05-10T16:12:34.116Z,99.34
2018-05-10T16:14:59.876Z,99.72
2018-05-10T16:17:26.251Z,99.28
2018-05-10T16:19:51.993Z,99.02
2018-05-10T16:22:17.736Z,98.95
2018-05-10T16:24:43.456Z,98.75
2018-05-10T16:27:09.213Z,98.96
2018-05-10T16:29:34.947Z,99.47
2018-05-10T16:32:00.684Z,98.50
2018-05-10T16:34:26.407Z,98.85
2018-05-10T16:36:52.156Z,98.22
2018-05-10T16:39:17.893Z,96.82
2018-05-10T16:41:43.623Z,97.10
2018-05-10T16:44:09.372Z,97.92
2018-05-10T16:46:35.108Z,96.92
2018-05-10T16:49:00.849Z,96.81
2018-05-10T16:51:26.574Z,97.25
2018-05-10T16:53:52.319Z,96.32
2018-05-10T16:56:18.048Z,97.15
2018-05-10T16:58:43.797Z,96.48
2018-05-10T17:01:09.538Z,97.06
2018-05-10T17:03:35.296Z,95.93
2018-05-10T17:06:01.016Z,95.88
2018-05-10T17:08:26.787Z,95.59
2018-05-10T17:10:53.392Z,95.49
2018-05-10T17:13:20.240Z,96.15
2018-05-10T17:15:47.067Z,96.53
2018-05-10T17:18:14.807Z,95.44
2018-05-10T17:20:41.260Z,95.44
2018-05-10T17:23:07.786Z,93.87
2018-05-10T17:25:33.565Z,93.33
2018-05-10T17:27:59.695Z,92.74
2018-05-10T17:30:25.455Z,92.26
2018-05-10T17:32:51.203Z,93.48
2018-05-10T17:35:16.935Z,93.59
2018-05-10T17:37:42.676Z,93.92
2018-05-10T17:40:08.402Z,93.22
2018-05-10T17:42:34.161Z,92.24
2018-05-10T17:45:00.705Z,92.34
2018-05-10T17:47:27.977Z,91.98
2018-05-10T17:49:53.775Z,90.95
2018-05-10T17:52:19.513Z,88.87
2018-05-10T17:54:45.239Z,88.55
2018-05-10T17:57:10.978Z,89.13
2018-05-10T17:59:36.720Z,88.49
2018-05-10T18:02:02.453Z,88.75
2018-05-10T18:04:28.208Z,88.32
2018-05-10T18:06:53.972Z,87.06
2018-05-10T18:09:19.716Z,87.38
2018-05-10T18:11:45.453Z,87.86
2018-05-10T18:14:11.225Z,87.75
2018-05-10T18:16:36.954Z,86.57
2018-05-10T18:19:02.689Z,89.53
2018-05-10T18:21:28.413Z,88.17
2018-05-10T18:23:54.164Z,88.53
2018-05-10T18:26:19.901Z,88.99
2018-05-10T18:28:45.644Z,89.87
2018-05-10T18:31:11.363Z,89.52
2018-05-10T18:33:37.100Z,88.29
2018-05-10T18:36:02.818Z,88.37
2018-05-10T18:38:28.566Z,88.28
2018-05-10T18:40:54.385Z,88.00
2018-05-10T18:43:20.029Z,88.12
2018-05-10T18:45:45.756Z,87.31
2018-05-10T18:48:11.493Z,87.51
2018-05-10T18:50:37.212Z,87.48
2018-05-10T18:53:02.933Z,87.45
2018-05-10T18:55:28.670Z,86.17
2018-05-10T18:57:54.388Z,85.09
2018-05-10T19:00:20.129Z,85.96
2018-05-10T19:02:45.847Z,85.08
2018-05-10T19:05:11.576Z,86.50
2018-05-10T19:07:37.298Z,86.18
2018-05-10T19:10:03.035Z,87.54
2018-05-10T19:12:28.757Z,84.54
2018-05-10T19:14:54.493Z,83.82
2018-05-10T19:17:20.213Z,84.62
2018-05-10T19:19:45.955Z,83.68
2018-05-10T19:22:11.680Z,83.21
2018-05-10T19:24:37.472Z,83.04
2018-05-10T19:27:03.149Z,83.39
2018-05-10T19:29:28.883Z,83.59
2018-05-10T19:31:54.665Z,82.92
2018-05-10T19:34:20.353Z,82.00
2018-05-10T19:36:46.079Z,84.84
2018-05-10T19:39:11.809Z,84.14
2018-05-10T19:41:37.529Z,84.14
2018-05-10T19:44:03.268Z,81.71
2018-05-10T19:46:29.017Z,82.70
2018-05-10T19:48:54.755Z,83.04
2018-05-10T19:51:20.496Z,82.87
2018-05-10T19:53:46.208Z,82.27
2018-05-10T19:56:11.928Z,81.72
2018-05-10T19:58:37.660Z,82.03
2018-05-10T20:01:03.395Z,82.02
2018-05-10T20:03:29.112Z,82.55
2018-05-10T20:05:54.843Z,82.85
2018-05-10T20:08:20.576Z,83.11
2018-05-10T20:10:46.315Z,82.95
2018-05-10T20:13:12.036Z,83.38
2018-05-10T20:15:37.776Z,83.03
2018-05-10T20:18:03.505Z,83.72
2018-05-10T20:20:29.231Z,83.70
2018-05-10T20:22:54.956Z,84.43
2018-05-10T20:25:20.687Z,84.43
2018-05-10T20:27:46.404Z,84.20
2018-05-10T20:30:12.133Z,83.35
2018-05-10T20:32:37.864Z,83.45
2018-05-10T20:35:04.730Z,84.85
2018-05-10T20:37:31.624Z,84.62
2018-05-10T20:39:57.409Z,84.08
2018-05-10T20:42:23.126Z,84.44
2018-05-10T20:44:48.982Z,84.48
2018-05-10T20:47:14.612Z,84.96
2018-05-10T20:49:40.349Z,84.41
2018-05-10T20:52:06.090Z,84.76
2018-05-10T20:54:31.819Z,85.46
2018-05-10T20:56:57.537Z,84.89
2018-05-10T20:59:23.274Z,84.72
2018-05-10T21:01:49.016Z,85.22
2018-05-10T21:04:14.827Z,84.96
2018-05-10T21:06:40.497Z,85.93
2018-05-10T21:09:06.236Z,85.06
2018-05-10T21:11:31.964Z,84.38
2018-05-10T21:13:57.686Z,84.06
2018-05-10T21:16:23.495Z,84.41
2018-05-10T21:18:49.156Z,83.54
2018-05-10T21:21:14.896Z,84.15
2018-05-10T21:23:40.612Z,82.93
2018-05-10T21:26:06.370Z,82.49
2018-05-10T21:28:32.072Z,82.98
2018-05-10T21:30:57.809Z,82.75
2018-05-10T21:33:23.532Z,82.92
2018-05-10T21:35:49.267Z,82.34
2018-05-10T21:38:14.992Z,82.63
2018-05-10T21:40:40.726Z,82.52
2018-05-10T21:43:06.444Z,82.60
2018-05-10T21:45:32.180Z,82.64
2018-05-10T21:47:57.893Z,82.70
2018-05-10T21:50:26.465Z,83.21
2018-05-10T21:52:52.195Z,83.68
2018-05-10T21:55:17.932Z,83.97
2018-05-10T21:57:43.656Z,85.07
2018-05-10T22:00:09.401Z,85.54
2018-05-10T22:02:35.121Z,86.04
2018-05-10T22:05:00.864Z,86.35
2018-05-10T22:07:26.611Z,86.67
2018-05-10T22:09:52.344Z,86.96
2018-05-10T22:12:18.079Z,87.24
2018-05-10T22:14:43.799Z,87.37
2018-05-10T22:17:09.540Z,87.51
2018-05-10T22:19:35.256Z,87.53
2018-05-10T22:22:01.036Z,87.64
2018-05-10T22:24:26.792Z,87.70
2018-05-10T22:26:52.532Z,87.94
2018-05-10T22:29:18.265Z,88.34
2018-05-10T22:31:44.004Z,88.02
2018-05-10T22:34:09.731Z,87.75
2018-05-10T22:36:35.470Z,88.02
2018-05-10T22:39:01.192Z,87.75
2018-05-10T22:41:27.018Z,87.82
2018-05-10T22:43:52.778Z,87.72
2018-05-10T22:46:18.518Z,87.86
2018-05-10T22:48:44.235Z,87.49
2018-05-10T22:51:09.975Z,87.78
2018-05-10T22:53:35.711Z,87.37
2018-05-10T22:56:01.552Z,87.01
2018-05-10T22:58:27.221Z,86.20
2018-05-10T23:00:52.957Z,86.20
2018-05-10T23:03:18.727Z,85.64
2018-05-10T23:05:44.693Z,86.45
2018-05-10T23:08:10.429Z,85.73
2018-05-10T23:10:36.174Z,85.53
2018-05-10T23:13:02.136Z,85.49
2018-05-10T23:15:27.864Z,85.76
2018-05-10T23:17:53.598Z,85.84
2018-05-10T23:20:19.324Z,85.34
2018-05-10T23:22:45.117Z,85.28
2018-05-10T23:25:10.836Z,85.46
2018-05-10T23:27:36.572Z,85.12
2018-05-10T23:30:02.289Z,84.91
2018-05-10T23:32:28.032Z,84.64
2018-05-10T23:34:53.788Z,84.99
2018-05-10T23:37:19.524Z,84.47
2018-05-10T23:39:45.242Z,84.24
2018-05-10T23:42:10.980Z,84.20
2018-05-10T23:44:36.698Z,84.44
2018-05-10T23:47:02.441Z,84.68
2018-05-10T23:49:28.159Z,84.80
2018-05-10T23:51:53.900Z,84.57
2018-05-10T23:54:19.617Z,84.73
2018-05-10T23:56:45.352Z,85.00
2018-05-10T23:59:11.069Z,85.15
